createdAt,value
2018-12-13T00:01:07.459Z,5.07
2018-12-13T00:03:35.772Z,3.17
2018-12-13T00:06:04.083Z,3.40
2018-12-13T00:08:32.398Z,3.47
2018-12-13T00:11:00.713Z,3.90
2018-12-13T00:13:29.027Z,3.40
2018-12-13T00:15:57.341Z,4.33
2018-12-13T00:18:25.652Z,3.77
2018-12-13T00:20:53.989Z,4.87
2018-12-13T00:23:22.297Z,3.57
2018-12-13T00:25:50.627Z,3.53
2018-12-13T00:28:18.951Z,4.33
2018-12-13T00:30:47.275Z,3.97
2018-12-13T00:33:15.591Z,4.90
2018-12-13T00:35:43.901Z,3.90
2018-12-13T00:38:12.225Z,3.40
2018-12-13T00:40:40.547Z,3.03
2018-12-13T00:43:08.862Z,3.33
2018-12-13T00:45:37.183Z,3.23
2018-12-13T00:48:05.496Z,3.77
2018-12-13T00:50:33.808Z,3.23
2018-12-13T00:53:02.133Z,3.60
2018-12-13T00:55:30.447Z,3.13
2018-12-13T00:57:58.765Z,3.07
2018-12-13T01:00:27.081Z,3.10
2018-12-13T01:02:55.407Z,3.70
2018-12-13T01:05:23.703Z,5.00
2018-12-13T01:07:52.018Z,4.00
2018-12-13T01:10:20.345Z,4.90
2018-12-13T01:12:48.664Z,5.60
2018-12-13T01:15:16.976Z,4.10
2018-12-13T01:17:45.287Z,4.53
2018-12-13T01:20:13.618Z,4.60
2018-12-13T01:22:41.936Z,4.13
2018-12-13T01:25:10.250Z,4.10
2018-12-13T01:27:38.565Z,4.03
2018-12-13T01:30:06.879Z,5.23
2018-12-13T01:32:35.207Z,5.17
2018-12-13T01:35:03.509Z,5.70
2018-12-13T01:37:31.891Z,6.13
2018-12-13T01:40:00.168Z,6.27
2018-12-13T01:42:28.487Z,3.73
2018-12-13T01:44:56.798Z,4.90
2018-12-13T01:47:25.107Z,3.90
2018-12-13T01:49:53.425Z,3.67
2018-12-13T01:52:21.752Z,3.10
2018-12-13T01:54:50.290Z,2.50
2018-12-13T01:57:18.378Z,2.23
2018-12-13T01:59:46.694Z,2.10
2018-12-13T02:02:15.007Z,2.20
2018-12-13T02:04:43.314Z,2.10
2018-12-13T02:07:11.629Z,2.40
2018-12-13T02:09:39.940Z,2.63
2018-12-13T02:12:08.250Z,3.17
2018-12-13T02:14:36.559Z,3.10
2018-12-13T02:17:04.869Z,2.57
2018-12-13T02:19:33.188Z,3.43
2018-12-13T02:22:01.511Z,2.80
2018-12-13T02:24:29.828Z,2.83
2018-12-13T02:26:58.149Z,3.43
2018-12-13T02:29:26.472Z,2.33
2018-12-13T02:31:54.789Z,2.10
2018-12-13T02:34:23.102Z,2.07
2018-12-13T02:36:51.408Z,2.40
2018-12-13T02:39:19.717Z,3.20
2018-12-13T02:41:48.051Z,2.77
2018-12-13T02:44:16.367Z,3.67
2018-12-13T02:46:44.691Z,3.87
2018-12-13T02:49:13.001Z,4.20
2018-12-13T02:51:41.313Z,3.63
2018-12-13T02:54:09.631Z,4.17
2018-12-13T02:56:37.946Z,3.87
2018-12-13T02:59:06.262Z,4.00
2018-12-13T03:01:34.579Z,3.63
2018-12-13T03:04:02.898Z,3.53
2018-12-13T03:06:31.215Z,4.30
2018-12-13T03:08:59.537Z,4.50
2018-12-13T03:11:27.858Z,4.73
2018-12-13T03:13:56.167Z,5.23
2018-12-13T03:16:24.538Z,6.13
2018-12-13T03:18:52.790Z,5.27
2018-12-13T03:21:21.101Z,5.73
2018-12-13T03:23:49.436Z,5.30
2018-12-13T03:26:17.742Z,6.33
2018-12-13T03:28:46.066Z,7.20
2018-12-13T03:31:14.380Z,6.80
2018-12-13T03:33:42.694Z,6.37
2018-12-13T03:36:11.055Z,6.33
2018-12-13T03:38:39.343Z,6.90
2018-12-13T03:41:07.653Z,6.10
2018-12-13T03:43:35.996Z,7.13
2018-12-13T03:46:04.322Z,7.07
2018-12-13T03:48:32.626Z,8.73
2018-12-13T03:51:00.941Z,8.03
2018-12-13T03:53:29.265Z,14.60
2018-12-13T03:55:57.579Z,8.53
2018-12-13T03:58:25.906Z,7.77
2018-12-13T04:00:54.218Z,4.03
2018-12-13T04:03:22.533Z,3.90
2018-12-13T04:05:50.840Z,4.50
2018-12-13T04:08:19.174Z,5.63
2018-12-13T04:10:47.488Z,5.23
2018-12-13T04:13:15.803Z,5.67
2018-12-13T04:15:44.134Z,5.10
2018-12-13T04:18:12.468Z,4.43
2018-12-13T04:20:40.788Z,4.10
2018-12-13T04:23:09.110Z,4.20
2018-12-13T04:25:37.431Z,4.40
2018-12-13T04:28:05.749Z,4.20
2018-12-13T04:30:34.065Z,3.80
2018-12-13T04:33:02.383Z,4.33
2018-12-13T04:35:30.713Z,3.63
2018-12-13T04:37:59.027Z,5.27
2018-12-13T04:40:27.351Z,4.03
2018-12-13T04:42:55.876Z,7.40
2018-12-13T04:45:23.998Z,4.67
2018-12-13T04:47:52.327Z,4.00
2018-12-13T04:50:20.661Z,3.40
2018-12-13T04:52:48.975Z,4.13
2018-12-13T04:55:17.295Z,3.43
2018-12-13T04:57:45.608Z,3.63
2018-12-13T05:00:13.917Z,4.77
2018-12-13T05:02:42.238Z,4.03
2018-12-13T05:05:10.574Z,5.40
2018-12-13T05:07:41.762Z,4.03
2018-12-13T05:10:07.215Z,3.93
2018-12-13T05:12:35.536Z,5.90
2018-12-13T05:15:03.859Z,43.20
2018-12-13T05:17:32.200Z,74.47
2018-12-13T05:20:00.531Z,16.70
2018-12-13T05:22:28.860Z,8.37
2018-12-13T05:24:57.191Z,36.77
2018-12-13T05:27:25.855Z,11.07
2018-12-13T05:29:54.183Z,11.47
2018-12-13T05:32:22.507Z,9.10
2018-12-13T05:34:50.819Z,7.10
2018-12-13T05:37:19.132Z,7.03
2018-12-13T05:39:47.458Z,7.50
2018-12-13T05:42:15.806Z,6.47
2018-12-13T05:44:44.118Z,7.70
2018-12-13T05:47:12.459Z,12.13
2018-12-13T05:49:40.810Z,10.20
2018-12-13T05:52:09.115Z,6.87
2018-12-13T05:54:37.444Z,5.10
2018-12-13T05:57:05.774Z,6.47
2018-12-13T05:59:34.085Z,6.10
2018-12-13T06:02:02.401Z,6.53
2018-12-13T06:04:30.725Z,6.40
2018-12-13T06:06:59.031Z,5.30
2018-12-13T06:09:27.345Z,7.00
2018-12-13T06:11:55.668Z,5.60
2018-12-13T06:14:23.994Z,9.00
2018-12-13T06:16:52.326Z,8.60
2018-12-13T06:19:26.584Z,7.37
2018-12-13T06:21:48.979Z,8.53
2018-12-13T06:24:17.301Z,8.80
2018-12-13T06:26:45.610Z,8.90
2018-12-13T06:29:14.226Z,8.80
2018-12-13T06:31:42.541Z,8.07
2018-12-13T06:34:11.128Z,17.30
2018-12-13T06:36:39.457Z,51.23
2018-12-13T06:39:07.784Z,7.03
2018-12-13T06:41:36.103Z,9.10
2018-12-13T06:44:04.413Z,5.43
2018-12-13T06:46:32.730Z,5.37
2018-12-13T06:49:01.101Z,16.00
2018-12-13T06:51:29.415Z,6.97
2018-12-13T06:53:57.756Z,5.10
2018-12-13T06:56:26.066Z,5.07
2018-12-13T06:58:54.977Z,5.50
2018-12-13T07:01:23.292Z,4.57
2018-12-13T07:03:51.608Z,6.20
2018-12-13T07:06:19.915Z,6.83
2018-12-13T07:08:54.004Z,6.20
2018-12-13T07:11:22.327Z,10.00
2018-12-13T07:13:50.644Z,11.57
2018-12-13T07:16:18.966Z,7.50
2018-12-13T07:18:47.283Z,5.73
2018-12-13T07:21:15.604Z,5.20
2018-12-13T07:23:43.922Z,6.73
2018-12-13T07:26:12.248Z,8.13
2018-12-13T07:28:40.577Z,8.77
2018-12-13T07:31:08.894Z,8.13
2018-12-13T07:33:37.212Z,7.33
2018-12-13T07:36:05.545Z,9.43
2018-12-13T07:38:33.877Z,7.73
2018-12-13T07:41:02.836Z,22.40
2018-12-13T07:43:31.401Z,27.07
2018-12-13T07:45:59.720Z,8.60
2018-12-13T07:48:28.039Z,6.40
2018-12-13T07:50:56.409Z,7.23
2018-12-13T07:53:24.735Z,7.50
2018-12-13T07:55:53.397Z,4.50
2018-12-13T07:58:21.724Z,4.87
2018-12-13T08:00:50.204Z,4.80
2018-12-13T08:03:18.519Z,3.93
2018-12-13T08:05:46.838Z,3.90
2018-12-13T08:08:20.647Z,4.80
2018-12-13T08:10:43.470Z,3.90
2018-12-13T08:13:12.302Z,3.90
2018-12-13T08:15:40.622Z,4.23
2018-12-13T08:18:08.968Z,19.53
2018-12-13T08:20:37.281Z,11.30
2018-12-13T08:23:05.597Z,16.23
2018-12-13T08:25:33.934Z,13.77
2018-12-13T08:28:02.248Z,11.07
2018-12-13T08:30:30.563Z,9.37
2018-12-13T08:32:58.944Z,10.13
2018-12-13T08:35:27.278Z,9.47
2018-12-13T08:37:55.596Z,7.70
2018-12-13T08:40:23.904Z,9.30
2018-12-13T08:42:52.220Z,9.00
2018-12-13T08:45:20.532Z,6.13
2018-12-13T08:47:48.856Z,4.97
2018-12-13T08:50:17.463Z,5.47
2018-12-13T08:52:46.514Z,5.03
2018-12-13T08:55:14.831Z,4.63
2018-12-13T08:57:43.160Z,3.77
2018-12-13T09:00:11.485Z,3.47
2018-12-13T09:02:39.796Z,3.50
2018-12-13T09:05:08.125Z,5.57
2018-12-13T09:07:36.458Z,20.00
2018-12-13T09:10:04.782Z,7.90
2018-12-13T09:12:33.096Z,6.93
2018-12-13T09:15:01.409Z,6.97
2018-12-13T09:17:29.731Z,9.60
2018-12-13T09:19:58.044Z,7.53
2018-12-13T09:22:26.367Z,8.30
2018-12-13T09:24:54.680Z,5.80
2018-12-13T09:27:23.005Z,5.73
2018-12-13T09:29:51.320Z,6.37
2018-12-13T09:32:19.652Z,8.10
2018-12-13T09:34:47.957Z,6.67
2018-12-13T09:37:16.277Z,7.67
2018-12-13T09:39:44.612Z,7.37
2018-12-13T09:42:13.854Z,7.33
2018-12-13T09:44:42.182Z,98.30
2018-12-13T09:47:10.790Z,48.83
2018-12-13T09:49:39.128Z,12.63
2018-12-13T09:52:07.786Z,9.67
2018-12-13T09:54:36.118Z,6.77
2018-12-13T09:57:04.428Z,5.93
2018-12-13T09:59:32.741Z,5.40
2018-12-13T10:02:01.062Z,5.10
2018-12-13T10:04:29.384Z,10.00
2018-12-13T10:06:57.707Z,6.90
2018-12-13T10:09:26.017Z,7.10
2018-12-13T10:11:54.343Z,9.13
2018-12-13T10:14:23.065Z,7.53
2018-12-13T10:16:51.513Z,7.23
2018-12-13T10:19:19.830Z,9.37
2018-12-13T10:21:48.159Z,10.87
2018-12-13T10:24:16.475Z,8.70
2018-12-13T10:26:44.791Z,8.57
2018-12-13T10:29:13.119Z,11.30
2018-12-13T10:31:41.687Z,6.60
2018-12-13T10:34:10.001Z,7.13
2018-12-13T10:36:38.330Z,6.40
2018-12-13T10:39:06.656Z,4.57
2018-12-13T10:41:34.974Z,4.13
2018-12-13T10:44:03.304Z,4.17
2018-12-13T10:46:31.621Z,3.80
2018-12-13T10:48:59.938Z,4.97
2018-12-13T10:51:28.268Z,3.90
2018-12-13T10:53:56.599Z,5.40
2018-12-13T10:56:24.937Z,5.03
2018-12-13T10:58:53.254Z,4.30
2018-12-13T11:01:27.119Z,4.43
2018-12-13T11:03:56.012Z,4.40
2018-12-13T11:06:24.336Z,6.37
2018-12-13T11:08:52.657Z,4.83
2018-12-13T11:11:20.975Z,5.43
2018-12-13T11:13:49.577Z,4.47
2018-12-13T11:16:17.904Z,5.97
2018-12-13T11:18:46.220Z,4.93
2018-12-13T11:21:17.504Z,5.07
2018-12-13T11:23:42.861Z,4.43
2018-12-13T11:26:11.187Z,5.13
2018-12-13T11:28:45.271Z,5.40
2018-12-13T11:31:13.848Z,4.70
2018-12-13T11:33:42.166Z,5.13
2018-12-13T11:36:10.486Z,4.37
2018-12-13T11:38:38.806Z,5.87
2018-12-13T11:41:07.117Z,5.40
2018-12-13T11:43:35.442Z,7.17
2018-12-13T11:46:03.758Z,6.47
2018-12-13T11:48:32.093Z,7.70
2018-12-13T11:51:00.416Z,6.03
2018-12-13T11:53:28.743Z,5.40
2018-12-13T11:55:57.057Z,5.97
2018-12-13T11:58:25.485Z,6.60
2018-12-13T12:00:53.799Z,6.73
2018-12-13T12:03:22.430Z,5.40
2018-12-13T12:05:50.744Z,6.60
2018-12-13T12:08:19.394Z,6.30
2018-12-13T12:10:47.727Z,6.67
2018-12-13T12:13:16.164Z,8.33
2018-12-13T12:15:44.501Z,8.07
2018-12-13T12:18:13.114Z,5.70
2018-12-13T12:20:41.431Z,4.97
2018-12-13T12:23:09.761Z,4.70
2018-12-13T12:25:38.074Z,6.20
2018-12-13T12:28:06.400Z,4.70
2018-12-13T12:30:34.717Z,5.27
2018-12-13T12:33:03.039Z,4.30
2018-12-13T12:35:31.373Z,4.80
2018-12-13T12:37:59.678Z,4.73
2018-12-13T12:40:27.995Z,3.60
2018-12-13T12:42:56.611Z,4.37
2018-12-13T12:45:25.138Z,4.63
2018-12-13T12:47:53.511Z,4.17
2018-12-13T12:50:21.828Z,4.67
2018-12-13T12:52:50.450Z,4.53
2018-12-13T12:55:18.768Z,4.80
2018-12-13T12:57:47.098Z,4.70
2018-12-13T13:00:15.925Z,4.07
2018-12-13T13:02:45.605Z,4.53
2018-12-13T13:05:12.593Z,5.80
2018-12-13T13:07:40.919Z,4.47
2018-12-13T13:10:09.539Z,6.57
2018-12-13T13:12:37.624Z,5.30
2018-12-13T13:15:05.957Z,7.27
2018-12-13T13:17:37.368Z,11.67
2018-12-13T13:20:05.794Z,10.93
2018-12-13T13:22:34.101Z,4.53
2018-12-13T13:25:03.912Z,4.87
2018-12-13T13:27:32.013Z,5.07
2018-12-13T13:30:00.183Z,4.23
2018-12-13T13:32:28.653Z,3.67
2018-12-13T13:34:56.984Z,4.07
2018-12-13T13:37:25.320Z,4.10
2018-12-13T13:39:53.651Z,5.13
2018-12-13T13:42:21.958Z,5.10
2018-12-13T13:44:50.278Z,4.83
2018-12-13T13:47:18.601Z,4.60
2018-12-13T13:49:46.942Z,7.47
2018-12-13T13:52:15.276Z,7.17
2018-12-13T13:54:43.598Z,5.87
2018-12-13T13:57:11.918Z,5.47
2018-12-13T13:59:40.987Z,6.63
2018-12-13T14:02:09.323Z,5.77
2018-12-13T14:04:37.663Z,7.10
2018-12-13T14:07:05.982Z,6.63
2018-12-13T14:09:37.874Z,8.33
2018-12-13T14:12:03.002Z,9.93
2018-12-13T14:14:31.616Z,8.90
2018-12-13T14:17:00.109Z,9.97
2018-12-13T14:19:29.446Z,12.30
2018-12-13T14:21:57.546Z,10.17
2018-12-13T14:24:25.865Z,12.10
2018-12-13T14:26:54.201Z,10.17
2018-12-13T14:29:22.545Z,21.07
2018-12-13T14:31:50.882Z,22.93
2018-12-13T14:34:19.484Z,32.80
2018-12-13T14:36:47.814Z,33.47
2018-12-13T14:39:16.159Z,38.60
2018-12-13T14:41:44.509Z,41.67
2018-12-13T14:44:12.831Z,36.70
2018-12-13T14:46:41.183Z,34.30
2018-12-13T14:49:09.502Z,36.50
2018-12-13T14:51:38.135Z,42.27
2018-12-13T14:54:06.497Z,51.73
2018-12-13T14:56:35.745Z,43.73
2018-12-13T14:59:04.086Z,47.63
2018-12-13T15:01:32.417Z,36.00
2018-12-13T15:04:00.926Z,140.17
2018-12-13T15:06:29.283Z,46.10
2018-12-13T15:08:57.612Z,72.43
2018-12-13T15:11:25.951Z,39.60
2018-12-13T15:13:54.280Z,37.57
2018-12-13T15:16:22.633Z,29.97
2018-12-13T15:18:50.974Z,24.07
2018-12-13T15:21:19.330Z,18.70
2018-12-13T15:23:47.666Z,31.60
2018-12-13T15:26:16.022Z,32.53
2018-12-13T15:28:44.407Z,62.33
2018-12-13T15:31:12.921Z,80.43
2018-12-13T15:33:41.442Z,100.43
2018-12-13T15:36:09.766Z,98.03
2018-12-13T15:38:38.404Z,85.63
2018-12-13T15:41:07.535Z,75.63
2018-12-13T15:43:35.872Z,67.00
2018-12-13T15:46:04.212Z,60.63
2018-12-13T15:48:32.548Z,48.37
2018-12-13T15:51:00.875Z,34.13
2018-12-13T15:53:29.204Z,21.60
2018-12-13T15:55:57.560Z,11.83
2018-12-13T15:58:26.163Z,11.30
2018-12-13T16:00:54.484Z,28.67
2018-12-13T16:03:22.823Z,48.17
2018-12-13T16:05:51.192Z,19.40
2018-12-13T16:08:19.529Z,10.57
2018-12-13T16:10:47.945Z,7.03
2018-12-13T16:13:16.338Z,7.07
2018-12-13T16:15:44.611Z,7.13
2018-12-13T16:18:13.216Z,6.70
2018-12-13T16:20:41.900Z,7.37
2018-12-13T16:23:10.223Z,8.90
2018-12-13T16:25:38.870Z,12.00
2018-12-13T16:28:07.867Z,14.00
2018-12-13T16:30:36.211Z,14.80
2018-12-13T16:33:04.568Z,11.43
2018-12-13T16:35:32.891Z,9.30
2018-12-13T16:38:01.230Z,5.90
2018-12-13T16:40:29.554Z,5.57
2018-12-13T16:42:57.879Z,4.90
2018-12-13T16:45:26.220Z,5.37
2018-12-13T16:47:54.597Z,6.40
2018-12-13T16:50:22.922Z,5.47
2018-12-13T16:52:51.254Z,5.80
2018-12-13T16:55:19.662Z,11.73
2018-12-13T16:57:47.997Z,8.37
2018-12-13T17:00:16.314Z,5.83
2018-12-13T17:02:44.633Z,7.67
2018-12-13T17:05:12.985Z,26.47
2018-12-13T17:07:41.369Z,103.27
2018-12-13T17:10:09.743Z,7.20
2018-12-13T17:12:38.092Z,6.77
2018-12-13T17:15:06.542Z,7.20
2018-12-13T17:17:34.856Z,6.93
2018-12-13T17:20:03.191Z,6.73
2018-12-13T17:22:31.546Z,5.70
2018-12-13T17:25:00.166Z,6.30
2018-12-13T17:27:28.484Z,7.10
2018-12-13T17:29:57.054Z,5.27
2018-12-13T17:32:25.150Z,4.80
2018-12-13T17:34:53.492Z,5.63
2018-12-13T17:37:22.114Z,4.53
2018-12-13T17:39:50.438Z,5.50
2018-12-13T17:42:18.805Z,6.20
2018-12-13T17:44:47.173Z,5.40
2018-12-13T17:47:15.561Z,5.47
2018-12-13T17:49:49.264Z,9.43
2018-12-13T17:52:23.026Z,6.47
2018-12-13T17:54:51.354Z,5.27
2018-12-13T17:57:19.705Z,5.20
2018-12-13T17:59:48.022Z,8.73
2018-12-13T18:02:16.357Z,12.33
2018-12-13T18:04:44.676Z,14.17
2018-12-13T18:07:13.009Z,10.97
2018-12-13T18:09:41.340Z,11.83
2018-12-13T18:12:09.677Z,10.10
2018-12-13T18:14:38.005Z,13.73
2018-12-13T18:17:06.376Z,10.90
2018-12-13T18:19:35.949Z,8.43
2018-12-13T18:22:06.496Z,15.80
2018-12-13T18:24:33.761Z,13.47
2018-12-13T18:27:01.863Z,13.20
2018-12-13T18:29:30.200Z,12.90
2018-12-13T18:31:58.518Z,8.23
2018-12-13T18:34:26.829Z,5.50
2018-12-13T18:36:55.852Z,5.17
2018-12-13T18:39:24.221Z,8.53
2018-12-13T18:41:52.537Z,5.63
2018-12-13T18:44:20.932Z,5.63
2018-12-13T18:46:49.296Z,4.60
2018-12-13T18:49:17.657Z,22.43
2018-12-13T18:51:46.048Z,14.13
2018-12-13T18:54:14.361Z,7.03
2018-12-13T18:56:42.677Z,6.50
2018-12-13T18:59:11.289Z,5.50
2018-12-13T19:01:39.619Z,6.13
2018-12-13T19:04:08.225Z,6.50
2018-12-13T19:06:36.568Z,7.07
2018-12-13T19:09:04.887Z,5.80
2018-12-13T19:11:35.907Z,5.60
2018-12-13T19:14:03.358Z,33.87
2018-12-13T19:16:32.692Z,15.03
2018-12-13T19:19:02.420Z,5.00
2018-12-13T19:21:30.750Z,10.67
2018-12-13T19:24:01.982Z,18.23
2018-12-13T19:26:30.537Z,8.67
2018-12-13T19:28:58.682Z,5.60
2018-12-13T19:31:27.008Z,4.17
2018-12-13T19:33:55.380Z,5.70
2018-12-13T19:36:23.726Z,5.40
2018-12-13T19:38:52.487Z,3.87
2018-12-13T19:41:21.392Z,3.60
2018-12-13T19:43:49.727Z,3.80
2018-12-13T19:46:18.079Z,3.97
2018-12-13T19:48:46.397Z,6.13
2018-12-13T19:51:14.754Z,8.50
2018-12-13T19:53:43.082Z,4.90
2018-12-13T19:56:11.385Z,5.20
2018-12-13T19:58:39.715Z,7.63
2018-12-13T20:01:08.984Z,28.97
2018-12-13T20:03:37.335Z,25.70
2018-12-13T20:06:05.677Z,5.00
2018-12-13T20:08:33.989Z,4.63
2018-12-13T20:11:03.149Z,4.47
2018-12-13T20:13:31.639Z,23.27
2018-12-13T20:16:00.017Z,9.60
2018-12-13T20:18:28.598Z,6.53
2018-12-13T20:20:57.080Z,6.90
2018-12-13T20:23:26.426Z,8.23
2018-12-13T20:25:55.340Z,4.40
2018-12-13T20:28:23.748Z,4.30
2018-12-13T20:30:52.153Z,3.60
2018-12-13T20:33:22.167Z,3.77
2018-12-13T20:35:50.859Z,4.40
2018-12-13T20:38:19.802Z,4.30
2018-12-13T20:40:49.217Z,34.20
2018-12-13T20:43:17.639Z,5.97
2018-12-13T20:45:46.695Z,3.37
2018-12-13T20:48:15.027Z,3.20
2018-12-13T20:50:44.526Z,4.03
2018-12-13T20:53:12.900Z,3.70
2018-12-13T20:55:44.220Z,5.30
2018-12-13T20:58:12.325Z,3.53
2018-12-13T21:00:40.642Z,4.27
2018-12-13T21:03:08.970Z,4.63
2018-12-13T21:05:37.301Z,4.50
2018-12-13T21:08:13.781Z,4.50
2018-12-13T21:10:40.776Z,5.63
2018-12-13T21:13:09.399Z,4.00
2018-12-13T21:15:37.839Z,4.80
2018-12-13T21:18:06.165Z,4.13
2018-12-13T21:20:34.491Z,3.63
2018-12-13T21:23:02.864Z,5.53
2018-12-13T21:25:32.234Z,46.97
2018-12-13T21:28:01.509Z,30.97
2018-12-13T21:30:29.838Z,8.10
2018-12-13T21:32:58.561Z,6.67
2018-12-13T21:35:26.882Z,8.07
2018-12-13T21:37:55.211Z,13.00
2018-12-13T21:40:23.548Z,13.10
2018-12-13T21:42:51.866Z,11.17
2018-12-13T21:45:20.246Z,13.67
2018-12-13T21:47:49.306Z,14.40
2018-12-13T21:50:17.696Z,15.37
2018-12-13T21:52:46.119Z,13.73
2018-12-13T21:55:14.462Z,12.80
2018-12-13T21:57:43.128Z,13.63
2018-12-13T22:00:11.426Z,14.90
2018-12-13T22:02:39.796Z,12.03
2018-12-13T22:05:08.156Z,15.33
2018-12-13T22:07:36.580Z,13.50
2018-12-13T22:10:04.918Z,16.33
2018-12-13T22:12:33.264Z,18.83
2018-12-13T22:15:02.614Z,109.93
2018-12-13T22:17:30.007Z,19.93
2018-12-13T22:19:58.345Z,17.13
2018-12-13T22:22:26.670Z,15.73
2018-12-13T22:24:55.801Z,16.17
2018-12-13T22:27:24.128Z,16.00
2018-12-13T22:29:53.132Z,18.00
2018-12-13T22:32:22.367Z,18.93
2018-12-13T22:34:50.679Z,23.07
2018-12-13T22:37:19.040Z,15.57
2018-12-13T22:39:47.361Z,16.83
2018-12-13T22:42:15.695Z,10.90
2018-12-13T22:44:44.030Z,12.70
2018-12-13T22:47:12.354Z,11.40
2018-12-13T22:49:40.666Z,12.53
2018-12-13T22:52:09.001Z,14.63
2018-12-13T22:54:37.333Z,16.77
2018-12-13T22:57:05.651Z,17.80
2018-12-13T22:59:33.987Z,14.53
2018-12-13T23:02:02.310Z,13.17
2018-12-13T23:04:30.657Z,14.30
2018-12-13T23:06:58.972Z,15.60
2018-12-13T23:09:27.298Z,13.97
2018-12-13T23:11:55.623Z,14.40
2018-12-13T23:14:23.945Z,12.87
2018-12-13T23:16:52.282Z,23.73
2018-12-13T23:19:20.631Z,11.03
2018-12-13T23:21:48.947Z,11.53
2018-12-13T23:24:17.276Z,10.43
2018-12-13T23:26:45.600Z,10.97
2018-12-13T23:29:13.926Z,10.13
2018-12-13T23:31:42.259Z,10.17
2018-12-13T23:34:10.610Z,10.33
2018-12-13T23:36:38.890Z,10.93
2018-12-13T23:39:07.218Z,12.60
2018-12-13T23:41:39.148Z,11.87
2018-12-13T23:44:03.881Z,11.23
2018-12-13T23:46:32.194Z,9.23
2018-12-13T23:49:00.523Z,8.03
2018-12-13T23:51:28.854Z,16.13
2018-12-13T23:53:57.174Z,20.03
2018-12-13T23:56:25.484Z,7.60
2018-12-13T23:58:53.800Z,11.37
